createdAt,value
2019-01-22T00:01:54.444Z,78.35
2019-01-22T00:04:25.616Z,74.72
2019-01-22T00:06:56.593Z,55.92
2019-01-22T00:09:29.043Z,83.62
2019-01-22T00:12:00.571Z,81.15
2019-01-22T00:14:31.784Z,69.67
2019-01-22T00:17:02.837Z,76.72
2019-01-22T00:19:33.944Z,77.50
2019-01-22T00:22:05.584Z,74.50
2019-01-22T00:24:36.872Z,75.95
2019-01-22T00:27:08.891Z,73.17
2019-01-22T00:29:39.986Z,76.87
2019-01-22T00:32:11.026Z,74.85
2019-01-22T00:34:42.151Z,60.27
2019-01-22T00:37:13.228Z,71.47
2019-01-22T00:39:44.251Z,79.53
2019-01-22T00:42:15.681Z,75.78
2019-01-22T00:44:46.677Z,78.00
2019-01-22T00:47:18.157Z,76.37
2019-01-22T00:49:49.213Z,68.37
2019-01-22T00:52:20.172Z,76.28
2019-01-22T00:54:51.248Z,71.85
2019-01-22T00:57:23.605Z,73.92
2019-01-22T00:59:54.815Z,76.12
2019-01-22T01:02:25.947Z,79.40
2019-01-22T01:04:57.107Z,75.45
2019-01-22T01:07:28.374Z,76.35
2019-01-22T01:09:59.586Z,73.78
2019-01-22T01:12:30.665Z,65.42
2019-01-22T01:15:01.825Z,81.42
2019-01-22T01:17:33.045Z,77.82
2019-01-22T01:20:04.417Z,73.90
2019-01-22T01:22:36.077Z,77.17
2019-01-22T01:25:09.706Z,78.00
2019-01-22T01:27:40.904Z,79.97
2019-01-22T01:30:14.653Z,87.53
2019-01-22T01:32:46.684Z,74.30
2019-01-22T01:35:17.959Z,80.17
2019-01-22T01:37:49.034Z,77.22
2019-01-22T01:40:20.677Z,83.52
2019-01-22T01:42:52.230Z,79.30
2019-01-22T01:45:23.344Z,73.00
2019-01-22T01:47:54.314Z,82.83
2019-01-22T01:50:25.568Z,82.27
2019-01-22T01:52:56.617Z,76.70
2019-01-22T01:55:27.878Z,81.02
2019-01-22T01:57:59.401Z,75.70
2019-01-22T02:00:30.523Z,75.80
2019-01-22T02:03:01.569Z,80.38
2019-01-22T02:05:33.290Z,81.45
2019-01-22T02:08:04.402Z,83.37
2019-01-22T02:10:35.895Z,77.60
2019-01-22T02:13:10.281Z,82.60
2019-01-22T02:15:50.276Z,79.15
2019-01-22T02:18:43.286Z,87.00
2019-01-22T02:21:45.324Z,79.35
2019-01-22T02:24:49.416Z,85.47
2019-01-22T02:27:55.069Z,62.83
2019-01-22T02:31:15.695Z,87.35
2019-01-22T02:34:20.693Z,85.25
2019-01-22T02:37:32.252Z,64.70
2019-01-22T02:40:15.662Z,80.45
2019-01-22T02:43:34.898Z,83.92
2019-01-22T02:46:30.403Z,83.67
2019-01-22T02:49:44.114Z,76.05
2019-01-22T02:53:07.446Z,99.77
2019-01-22T02:56:03.900Z,84.85
2019-01-22T02:58:58.484Z,87.95
2019-01-22T03:02:40.016Z,84.65
2019-01-22T03:05:26.114Z,93.62
2019-01-22T03:08:35.193Z,79.15
2019-01-22T03:11:20.188Z,93.72
2019-01-22T03:14:00.289Z,92.00
2019-01-22T03:17:07.319Z,97.95
2019-01-22T03:20:20.586Z,89.90
2019-01-22T03:23:46.430Z,94.20
2019-01-22T03:27:07.099Z,96.90
2019-01-22T03:30:39.574Z,93.52
2019-01-22T03:33:43.872Z,96.90
2019-01-22T03:37:10.554Z,91.53
2019-01-22T03:39:59.763Z,95.55
2019-01-22T03:43:29.495Z,92.22
2019-01-22T03:46:42.204Z,94.42
2019-01-22T03:49:37.799Z,94.00
2019-01-22T03:52:42.723Z,92.95
2019-01-22T03:55:50.246Z,95.80
2019-01-22T03:58:22.359Z,94.22
2019-01-22T04:01:25.713Z,94.60
2019-01-22T04:03:57.007Z,75.03
2019-01-22T04:06:59.698Z,92.45
2019-01-22T04:09:33.857Z,81.97
2019-01-22T04:12:05.343Z,88.87
2019-01-22T04:14:36.553Z,89.10
2019-01-22T04:17:08.717Z,94.60
2019-01-22T04:19:39.774Z,98.97
2019-01-22T04:22:17.324Z,99.07
2019-01-22T04:25:24.335Z,98.42
2019-01-22T04:28:18.306Z,96.22
2019-01-22T04:31:34.978Z,100.25
2019-01-22T04:34:38.265Z,102.27
2019-01-22T04:37:50.085Z,91.23
2019-01-22T04:41:02.266Z,96.82
2019-01-22T04:44:29.105Z,91.42
2019-01-22T04:47:34.334Z,89.35
2019-01-22T04:50:38.475Z,101.33
2019-01-22T04:54:01.663Z,98.50
2019-01-22T04:56:57.613Z,95.45
2019-01-22T04:59:56.981Z,96.37
2019-01-22T05:02:58.898Z,96.57
2019-01-22T05:06:19.647Z,96.28
2019-01-22T05:09:08.074Z,111.95
2019-01-22T05:12:16.686Z,100.78
2019-01-22T05:15:18.576Z,102.90
2019-01-22T05:18:27.608Z,103.70
2019-01-22T05:21:34.914Z,105.37
2019-01-22T05:28:00.478Z,107.15
2019-01-22T05:30:59.249Z,105.52
2019-01-22T05:33:58.547Z,103.12
2019-01-22T05:37:08.664Z,80.87
2019-01-22T05:40:16.027Z,93.92
2019-01-22T05:43:23.309Z,106.58
2019-01-22T05:46:22.928Z,101.40
2019-01-22T05:49:04.866Z,118.20
2019-01-22T05:52:14.668Z,118.55
2019-01-22T05:55:05.876Z,98.05
2019-01-22T05:58:03.676Z,107.52
2019-01-22T06:01:03.254Z,116.25
2019-01-22T06:04:11.727Z,113.32
2019-01-22T06:07:14.594Z,110.88
2019-01-22T06:10:41.627Z,119.93
2019-01-22T06:13:30.837Z,115.17
2019-01-22T06:16:33.025Z,122.15
2019-01-22T06:19:13.525Z,112.12
2019-01-22T06:22:29.175Z,116.25
2019-01-22T06:25:49.661Z,119.17
2019-01-22T06:29:00.978Z,113.75
2019-01-22T06:32:28.196Z,102.65
2019-01-22T06:35:40.287Z,120.67
2019-01-22T06:38:31.800Z,126.80
2019-01-22T06:41:55.720Z,118.08
2019-01-22T06:45:00.553Z,124.85
2019-01-22T06:47:50.214Z,122.17
2019-01-22T06:50:55.024Z,126.07
2019-01-22T06:53:48.086Z,121.45
2019-01-22T06:56:41.807Z,125.38
2019-01-22T06:59:23.715Z,110.60
2019-01-22T07:02:33.892Z,129.35
2019-01-22T07:05:55.087Z,122.45
2019-01-22T07:09:08.122Z,129.30
2019-01-22T07:12:05.980Z,109.15
2019-01-22T07:15:35.985Z,121.28
2019-01-22T07:18:32.559Z,115.88
2019-01-22T07:21:28.644Z,128.50
2019-01-22T07:24:17.985Z,99.90
2019-01-22T07:27:12.894Z,125.05
2019-01-22T07:30:31.768Z,82.67
2019-01-22T07:33:41.968Z,80.03
2019-01-22T07:36:44.368Z,116.77
2019-01-22T07:39:47.488Z,119.73
2019-01-22T07:42:47.836Z,110.70
2019-01-22T07:45:52.216Z,102.60
2019-01-22T07:48:32.651Z,120.77
2019-01-22T07:51:41.956Z,112.37
2019-01-22T07:54:38.248Z,121.22
2019-01-22T07:57:35.978Z,96.43
2019-01-22T08:00:28.348Z,122.50
2019-01-22T08:04:14.006Z,118.73
2019-01-22T08:07:05.844Z,94.87
2019-01-22T08:10:11.649Z,111.90
2019-01-22T08:13:06.340Z,99.73
2019-01-22T08:15:54.215Z,112.37
2019-01-22T08:19:10.839Z,89.63
2019-01-22T08:22:40.636Z,109.20
2019-01-22T08:26:03.080Z,110.13
2019-01-22T08:28:47.097Z,102.10
2019-01-22T08:32:08.935Z,100.80
2019-01-22T08:35:24.838Z,106.40
2019-01-22T08:38:26.329Z,104.07
2019-01-22T08:41:38.132Z,106.53
2019-01-22T08:47:49.727Z,109.77
2019-01-22T08:51:10.569Z,100.70
2019-01-22T08:54:34.408Z,97.80
2019-01-22T08:57:27.662Z,101.40
2019-01-22T09:00:10.520Z,94.77
2019-01-22T09:03:14.613Z,100.90
2019-01-22T09:06:06.795Z,103.17
2019-01-22T09:09:13.507Z,108.93
2019-01-22T09:12:30.835Z,106.63
2019-01-22T09:15:21.425Z,98.23
2019-01-22T09:18:09.472Z,106.23
2019-01-22T09:21:27.802Z,100.17
2019-01-22T09:24:40.731Z,87.63
2019-01-22T09:27:54.009Z,106.70
2019-01-22T09:30:44.981Z,94.03
2019-01-22T09:34:18.217Z,101.40
2019-01-22T09:37:13.359Z,94.17
2019-01-22T09:39:44.975Z,98.63
2019-01-22T09:42:16.769Z,91.23
2019-01-22T09:44:47.942Z,88.53
2019-01-22T09:47:19.666Z,91.30
2019-01-22T09:49:51.274Z,82.10
2019-01-22T09:52:22.366Z,89.57
2019-01-22T09:54:53.939Z,91.90
2019-01-22T09:57:24.889Z,90.67
2019-01-22T09:59:56.745Z,91.07
2019-01-22T10:02:27.904Z,94.87
2019-01-22T10:04:58.928Z,94.23
2019-01-22T10:07:29.835Z,96.80
2019-01-22T10:10:01.701Z,92.93
2019-01-22T10:12:32.602Z,91.20
2019-01-22T10:15:04.523Z,94.43
2019-01-22T10:17:35.489Z,99.90
2019-01-22T10:20:08.778Z,98.97
2019-01-22T10:22:39.882Z,99.70
2019-01-22T10:25:11.169Z,99.57
2019-01-22T10:30:14.367Z,90.53
2019-01-22T10:32:45.196Z,101.00
2019-01-22T10:35:16.487Z,99.70
2019-01-22T10:37:47.501Z,104.10
2019-01-22T10:40:20.691Z,100.27
2019-01-22T10:42:51.944Z,100.57
2019-01-22T10:45:22.953Z,107.67
2019-01-22T10:47:53.850Z,98.20
2019-01-22T10:50:24.920Z,95.47
2019-01-22T10:52:55.939Z,97.57
2019-01-22T10:55:26.959Z,94.37
2019-01-22T10:57:58.037Z,96.03
2019-01-22T11:00:31.206Z,97.07
2019-01-22T11:03:02.101Z,92.90
2019-01-22T11:05:35.253Z,89.03
2019-01-22T11:08:06.468Z,93.10
2019-01-22T11:10:37.462Z,103.50
2019-01-22T11:13:08.616Z,92.40
2019-01-22T11:15:39.560Z,90.30
2019-01-22T11:18:10.366Z,90.47
2019-01-22T11:20:41.241Z,88.53
2019-01-22T11:23:12.229Z,93.07
2019-01-22T11:25:43.748Z,89.70
2019-01-22T11:28:14.737Z,82.67
2019-01-22T11:30:45.853Z,88.70
2019-01-22T11:33:16.772Z,88.63
2019-01-22T11:35:47.858Z,88.80
2019-01-22T11:38:18.797Z,82.43
2019-01-22T11:40:49.924Z,96.43
2019-01-22T11:43:20.745Z,86.80
2019-01-22T11:45:51.610Z,90.60
2019-01-22T11:48:22.745Z,88.63
2019-01-22T11:50:53.660Z,95.43
2019-01-22T11:53:25.627Z,79.97
2019-01-22T11:55:57.850Z,84.07
2019-01-22T11:58:28.801Z,80.67
2019-01-22T12:00:58.641Z,88.63
2019-01-22T12:03:29.656Z,84.87
2019-01-22T12:06:00.533Z,79.07
2019-01-22T12:08:32.690Z,82.13
2019-01-22T12:11:03.591Z,92.17
2019-01-22T12:13:34.480Z,85.00
2019-01-22T12:16:05.442Z,88.07
2019-01-22T12:18:36.296Z,81.63
2019-01-22T12:21:08.372Z,80.40
2019-01-22T12:23:39.296Z,83.10
2019-01-22T12:26:10.295Z,84.27
2019-01-22T12:28:41.543Z,77.53
2019-01-22T12:31:12.528Z,77.37
2019-01-22T12:33:44.058Z,83.43
2019-01-22T12:36:15.089Z,82.60
2019-01-22T12:38:46.016Z,82.17
2019-01-22T12:41:17.538Z,85.57
2019-01-22T12:43:48.460Z,88.07
2019-01-22T12:46:19.433Z,81.53
2019-01-22T12:48:50.237Z,84.80
2019-01-22T12:51:21.120Z,83.53
2019-01-22T12:53:51.913Z,80.23
2019-01-22T12:56:23.869Z,79.57
2019-01-22T12:58:54.676Z,86.37
2019-01-22T13:01:25.653Z,83.60
2019-01-22T13:03:56.688Z,86.93
2019-01-22T13:06:27.624Z,81.83
2019-01-22T13:08:58.453Z,92.10
2019-01-22T13:11:29.446Z,84.87
2019-01-22T13:14:00.286Z,88.13
2019-01-22T13:16:31.255Z,87.10
2019-01-22T13:19:02.137Z,90.20
2019-01-22T13:21:33.063Z,92.33
2019-01-22T13:24:04.150Z,103.80
2019-01-22T13:26:36.106Z,84.33
2019-01-22T13:29:07.070Z,89.53
2019-01-22T13:31:38.135Z,83.80
2019-01-22T13:34:09.243Z,85.00
2019-01-22T13:36:40.184Z,84.57
2019-01-22T13:39:11.866Z,87.27
2019-01-22T13:41:42.845Z,86.03
2019-01-22T13:44:14.392Z,87.50
2019-01-22T13:46:45.523Z,83.53
2019-01-22T13:49:16.441Z,83.17
2019-01-22T13:51:47.380Z,84.13
2019-01-22T13:54:18.458Z,89.40
2019-01-22T13:56:49.358Z,86.53
2019-01-22T13:59:20.169Z,91.40
2019-01-22T14:01:51.141Z,94.07
2019-01-22T14:04:22.075Z,96.93
2019-01-22T14:06:53.022Z,100.60
2019-01-22T14:09:23.920Z,101.53
2019-01-22T14:11:54.892Z,109.07
2019-01-22T14:14:26.677Z,107.17
2019-01-22T14:16:58.137Z,109.80
2019-01-22T14:19:29.611Z,101.80
2019-01-22T14:22:01.484Z,111.07
2019-01-22T14:24:32.678Z,110.07
2019-01-22T14:27:04.375Z,106.53
2019-01-22T14:29:36.394Z,105.33
2019-01-22T14:32:07.946Z,93.47
2019-01-22T14:34:38.344Z,104.87
2019-01-22T14:37:09.793Z,93.80
2019-01-22T14:39:41.957Z,97.67
2019-01-22T14:42:14.559Z,106.87
2019-01-22T14:44:45.842Z,113.03
2019-01-22T14:47:16.171Z,108.80
2019-01-22T14:49:48.452Z,109.50
2019-01-22T14:52:19.757Z,114.40
2019-01-22T14:54:51.330Z,115.17
2019-01-22T14:57:23.032Z,116.10
2019-01-22T14:59:54.401Z,114.60
2019-01-22T15:02:25.996Z,120.25
2019-01-22T15:04:58.214Z,125.37
2019-01-22T15:07:29.572Z,118.53
2019-01-22T15:10:01.424Z,120.35
2019-01-22T15:12:33.935Z,124.62
2019-01-22T15:15:07.012Z,141.18
2019-01-22T15:17:38.857Z,149.38
2019-01-22T15:20:13.174Z,145.92
2019-01-22T15:22:45.385Z,156.33
2019-01-22T15:25:17.318Z,141.95
2019-01-22T15:27:48.817Z,148.25
2019-01-22T15:30:28.420Z,127.78
2019-01-22T15:32:59.929Z,145.38
2019-01-22T15:35:32.031Z,142.60
2019-01-22T15:38:03.724Z,119.53
2019-01-22T15:40:35.103Z,141.95
2019-01-22T15:43:06.666Z,139.03
2019-01-22T15:45:37.932Z,140.92
2019-01-22T15:48:09.467Z,140.60
2019-01-22T15:50:40.945Z,142.98
2019-01-22T15:53:13.015Z,139.15
2019-01-22T15:55:48.090Z,139.00
2019-01-22T15:58:15.820Z,145.40
2019-01-22T16:00:47.896Z,137.88
2019-01-22T16:03:18.762Z,138.52
2019-01-22T16:05:49.602Z,148.10
2019-01-22T16:08:20.783Z,140.45
2019-01-22T16:10:51.689Z,144.25
2019-01-22T16:13:22.668Z,148.35
2019-01-22T16:15:53.567Z,167.07
2019-01-22T16:18:24.526Z,162.15
2019-01-22T16:20:55.378Z,152.80
2019-01-22T16:23:26.278Z,172.68
2019-01-22T16:25:57.202Z,165.73
2019-01-22T16:28:28.112Z,158.65
2019-01-22T16:30:59.019Z,157.05
2019-01-22T16:33:29.925Z,161.62
2019-01-22T16:36:00.795Z,190.73
2019-01-22T16:38:31.681Z,180.63
2019-01-22T16:41:02.534Z,194.65
2019-01-22T16:43:33.424Z,191.88
2019-01-22T16:46:04.595Z,188.03
2019-01-22T16:48:35.547Z,191.20
2019-01-22T16:51:06.511Z,202.03
2019-01-22T16:53:37.614Z,205.57
2019-01-22T16:56:08.828Z,213.50
2019-01-22T16:58:39.998Z,204.07
2019-01-22T17:01:11.341Z,195.80
2019-01-22T17:03:42.300Z,200.70
2019-01-22T17:06:13.515Z,210.00
2019-01-22T17:08:45.531Z,219.65
2019-01-22T17:11:17.521Z,195.35
2019-01-22T17:13:49.592Z,204.23
2019-01-22T17:16:20.840Z,214.20
2019-01-22T17:18:53.907Z,202.15
2019-01-22T17:21:27.043Z,216.93
2019-01-22T17:23:58.873Z,202.03
2019-01-22T17:26:37.418Z,210.95
2019-01-22T17:29:10.391Z,218.70
2019-01-22T17:32:04.651Z,224.32
2019-01-22T17:34:44.898Z,232.70
2019-01-22T17:37:19.704Z,233.40
2019-01-22T17:39:47.690Z,243.73
2019-01-22T17:42:20.362Z,247.33
2019-01-22T17:44:53.283Z,242.62
2019-01-22T17:47:25.759Z,254.05
2019-01-22T17:49:57.826Z,235.72
2019-01-22T17:52:31.766Z,236.30
2019-01-22T17:55:03.618Z,228.75
2019-01-22T17:57:38.823Z,196.55
2019-01-22T18:00:14.873Z,155.05
2019-01-22T18:02:48.329Z,248.35
2019-01-22T18:05:20.473Z,202.45
2019-01-22T18:07:52.798Z,240.75
2019-01-22T18:10:27.989Z,222.20
2019-01-22T18:13:01.429Z,230.80
2019-01-22T18:15:34.080Z,258.02
2019-01-22T18:18:07.450Z,240.20
2019-01-22T18:20:38.967Z,218.88
2019-01-22T18:23:11.438Z,233.15
2019-01-22T18:25:42.991Z,207.83
2019-01-22T18:28:14.872Z,250.95
2019-01-22T18:30:47.215Z,224.12
2019-01-22T18:33:18.625Z,232.20
2019-01-22T18:35:51.326Z,224.05
2019-01-22T18:38:25.603Z,213.00
2019-01-22T18:40:57.319Z,205.15
2019-01-22T18:43:30.069Z,195.15
2019-01-22T18:46:04.057Z,214.02
2019-01-22T18:48:35.979Z,216.80
2019-01-22T18:51:08.386Z,203.22
2019-01-22T18:53:40.824Z,204.85
2019-01-22T18:56:15.515Z,213.85
2019-01-22T18:58:49.086Z,203.27
2019-01-22T19:01:20.756Z,190.53
2019-01-22T19:03:52.132Z,197.37
2019-01-22T19:06:23.481Z,197.13
2019-01-22T19:08:55.253Z,181.93
2019-01-22T19:11:26.539Z,190.62
2019-01-22T19:13:57.941Z,188.80
2019-01-22T19:16:29.381Z,181.97
2019-01-22T19:19:01.286Z,180.90
2019-01-22T19:21:32.725Z,193.28
2019-01-22T19:24:04.117Z,185.67
2019-01-22T19:26:35.523Z,201.40
2019-01-22T19:29:06.812Z,184.95
2019-01-22T19:31:38.179Z,186.85
2019-01-22T19:34:09.598Z,187.92
2019-01-22T19:36:41.059Z,154.18
2019-01-22T19:39:12.370Z,167.00
2019-01-22T19:41:43.721Z,98.45
2019-01-22T19:44:15.112Z,160.10
2019-01-22T19:46:46.501Z,97.65
2019-01-22T19:49:17.830Z,164.20
2019-01-22T19:51:49.020Z,150.70
2019-01-22T19:54:21.430Z,170.15
2019-01-22T19:56:54.005Z,122.22
2019-01-22T19:59:25.743Z,165.88
2019-01-22T20:01:57.215Z,186.28
2019-01-22T20:04:28.723Z,169.55
2019-01-22T20:07:00.162Z,184.72
2019-01-22T20:09:31.617Z,167.90
2019-01-22T20:12:03.161Z,129.97
2019-01-22T20:14:50.165Z,161.68
2019-01-22T20:17:21.702Z,174.40
2019-01-22T20:19:53.269Z,150.50
2019-01-22T20:22:24.701Z,200.93
2019-01-22T20:24:56.318Z,184.75
2019-01-22T20:27:28.817Z,137.40
2019-01-22T20:30:00.619Z,177.85
2019-01-22T20:32:32.501Z,122.22
2019-01-22T20:35:04.311Z,172.93
2019-01-22T20:37:35.657Z,174.72
2019-01-22T20:40:08.599Z,150.45
2019-01-22T20:42:39.954Z,186.28
2019-01-22T20:45:13.739Z,175.95
2019-01-22T20:47:45.202Z,139.25
2019-01-22T20:50:19.423Z,158.95
2019-01-22T20:52:49.880Z,164.77
2019-01-22T20:55:21.813Z,163.05
2019-01-22T20:57:55.204Z,174.27
2019-01-22T21:00:27.683Z,158.75
2019-01-22T21:02:59.241Z,174.00
2019-01-22T21:05:32.168Z,149.38
2019-01-22T21:08:03.910Z,159.80
2019-01-22T21:10:37.704Z,143.87
2019-01-22T21:13:10.631Z,144.57
2019-01-22T21:15:42.343Z,159.15
2019-01-22T21:18:13.997Z,148.57
2019-01-22T21:20:45.795Z,159.27
2019-01-22T21:23:17.137Z,126.82
2019-01-22T21:25:48.376Z,143.78
2019-01-22T21:28:21.254Z,161.05
2019-01-22T21:30:57.443Z,158.47
2019-01-22T21:33:30.788Z,141.88
2019-01-22T21:36:01.262Z,106.20
2019-01-22T21:38:32.549Z,150.35
2019-01-22T21:41:04.007Z,149.93
2019-01-22T21:43:35.396Z,143.82
2019-01-22T21:46:06.796Z,156.55
2019-01-22T21:48:37.273Z,132.07
2019-01-22T21:51:08.628Z,145.32
2019-01-22T21:53:40.877Z,138.35
2019-01-22T21:56:12.218Z,148.87
2019-01-22T21:58:43.384Z,154.35
2019-01-22T22:01:16.113Z,141.37
2019-01-22T22:03:47.477Z,151.45
2019-01-22T22:06:18.939Z,149.50
2019-01-22T22:08:50.238Z,166.88
2019-01-22T22:11:22.224Z,152.75
2019-01-22T22:13:53.544Z,165.47
2019-01-22T22:16:24.996Z,156.80
2019-01-22T22:18:56.389Z,168.75
2019-01-22T22:21:27.811Z,168.35
2019-01-22T22:23:59.164Z,173.78
2019-01-22T22:26:30.775Z,173.72
2019-01-22T22:29:02.046Z,172.65
2019-01-22T22:31:33.720Z,169.37
2019-01-22T22:34:05.289Z,170.35
2019-01-22T22:36:36.677Z,168.47
2019-01-22T22:39:09.778Z,156.80
2019-01-22T22:41:41.082Z,160.97
2019-01-22T22:44:12.475Z,172.10
2019-01-22T22:46:43.787Z,171.20
2019-01-22T22:49:15.121Z,169.80
2019-01-22T22:51:46.510Z,155.87
2019-01-22T22:54:17.997Z,160.45
2019-01-22T22:56:49.485Z,153.30
2019-01-22T22:59:20.917Z,156.07
2019-01-22T23:01:52.447Z,148.78
2019-01-22T23:04:23.727Z,156.60
2019-01-22T23:06:55.065Z,147.68
2019-01-22T23:09:26.286Z,139.92
2019-01-22T23:11:57.610Z,149.55
2019-01-22T23:14:29.078Z,145.57
2019-01-22T23:17:00.381Z,146.07
2019-01-22T23:19:31.836Z,139.85
2019-01-22T23:22:03.189Z,171.85
2019-01-22T23:24:34.482Z,136.43
2019-01-22T23:27:06.156Z,141.60
2019-01-22T23:29:38.455Z,131.80
2019-01-22T23:32:09.748Z,140.18
2019-01-22T23:34:40.921Z,134.97
2019-01-22T23:37:13.410Z,151.12
2019-01-22T23:39:44.512Z,136.12
2019-01-22T23:42:15.876Z,156.10
2019-01-22T23:44:47.017Z,129.12
2019-01-22T23:47:18.228Z,136.35
2019-01-22T23:49:49.494Z,140.60
2019-01-22T23:52:20.836Z,133.07
2019-01-22T23:54:51.824Z,129.93
2019-01-22T23:57:22.946Z,147.22
2019-01-22T23:59:54.156Z,156.95
